TimeAKDT,TemperatureF,Dew PointF,Humidity,Sea Level PressureIn,VisibilityMPH,Wind Direction,Wind SpeedMPH,Gust SpeedMPH,PrecipitationIn,Events,Conditions,WindDirDegrees,DateUTC
12:53 AM,48.0,39.9,74,29.59,10.0,SSW,19.6,24.2,N/A,,Scattered Clouds,200,2013-05-14 08:53:00
1:53 AM,48.0,41.0,77,29.61,10.0,SSW,21.9,28.8,0.00,Rain,Light Rain,200,2013-05-14 09:53:00
2:53 AM,48.0,39.9,74,29.61,10.0,South,18.4,26.5,0.01,,Overcast,190,2013-05-14 10:53:00
3:53 AM,46.9,39.9,77,29.63,10.0,SSW,17.3,31.1,N/A,,Overcast,200,2013-05-14 11:53:00
4:53 AM,48.0,39.9,74,29.64,10.0,SSW,21.9,31.1,N/A,,Overcast,200,2013-05-14 12:53:00
5:53 AM,46.9,39.9,77,29.65,10.0,SSW,18.4,-,N/A,,Mostly Cloudy,200,2013-05-14 13:53:00
6:53 AM,48.0,39.0,71,29.66,10.0,SSW,18.4,27.6,N/A,,Overcast,200,2013-05-14 14:53:00
7:53 AM,48.0,39.0,71,29.67,10.0,SSW,24.2,32.2,N/A,,Overcast,210,2013-05-14 15:53:00
8:53 AM,48.0,39.0,71,29.68,10.0,SSW,26.5,39.1,N/A,,Mostly Cloudy,210,2013-05-14 16:53:00
9:53 AM,48.9,39.0,69,29.70,10.0,SSW,25.3,35.7,N/A,,Overcast,210,2013-05-14 17:53:00
10:53 AM,48.9,39.0,69,29.71,10.0,SSW,26.5,34.5,N/A,,Overcast,210,2013-05-14 18:53:00
11:53 AM,50.0,39.9,68,29.72,10.0,SSW,29.9,39.1,N/A,,Overcast,210,2013-05-14 19:53:00
12:53 PM,50.0,39.9,68,29.73,10.0,SSW,27.6,35.7,N/A,,Overcast,210,2013-05-14 20:53:00
1:53 PM,50.0,39.9,68,29.73,10.0,SSW,28.8,38.0,N/A,,Overcast,210,2013-05-14 21:53:00
2:53 PM,50.0,39.9,68,29.73,10.0,SSW,27.6,35.7,N/A,,Mostly Cloudy,210,2013-05-14 22:53:00
3:53 PM,50.0,39.9,68,29.74,10.0,SSW,27.6,38.0,N/A,,Mostly Cloudy,210,2013-05-14 23:53:00
4:53 PM,50.0,39.9,68,29.73,10.0,SSW,19.6,-,N/A,,Mostly Cloudy,210,2013-05-15 00:53:00
5:53 PM,50.0,39.0,66,29.74,10.0,SSW,20.7,31.1,N/A,,Mostly Cloudy,210,2013-05-15 01:53:00
6:53 PM,50.0,39.0,66,29.73,10.0,SSW,18.4,24.2,N/A,,Mostly Cloudy,200,2013-05-15 02:53:00
7:53 PM,48.9,39.9,71,29.74,10.0,SSW,23.0,28.8,N/A,,Mostly Cloudy,210,2013-05-15 03:53:00
8:53 PM,48.0,39.9,74,29.75,10.0,SSW,20.7,38.0,N/A,,Partly Cloudy,200,2013-05-15 04:53:00
9:53 PM,48.0,39.9,74,29.75,10.0,SSW,18.4,26.5,N/A,,Mostly Cloudy,200,2013-05-15 05:53:00
10:53 PM,48.0,39.9,74,29.75,10.0,SSW,25.3,34.5,N/A,,Overcast,200,2013-05-15 06:53:00
11:53 PM,46.9,39.9,77,29.74,10.0,SSW,24.2,33.4,N/A,,Mostly Cloudy,210,2013-05-15 07:53:00